Terminal Aerodrome Forecast
Issued by NWS

Home | Current Version | Previous Version | Text Only | Print | Product List | Glossary On
Versions: 1 2 3 4 5 6 7 8 9 10 11 12 13 14 15 16 17 18 19 20 21 22 23 24 25 26 27 28 29 30 31 32 33 34 35 36 37 38 39 40 41 42 43 44 45 46 47 48 49
000
FTAK31 PAFA 030526 CCA
TAFAQT
TAF COR
PAQT 030526Z 0305/0406 26008KT P6SM -SHRA BKN027 OVC035
     FM031200 26015G25KT 4SM -RA BR OVC015
     FM031900 25013KT 3SM -RA BR BKN004 OVC015=

USA.gov is the U.S. government's official web portal to all federal, state and local government web resources and services.